»·PEaware :: N210AR 67L-L77

N210AR :: 67L-L77

FLIGHT INFORMATION

Flight Status: Arrived
Operator: Privately registered:
United States
More flights under this callsign
Pilot: Max S. (16657)
Aircraft: CESSNA 172 SKYHAWK
(C172)
More flights by this aircraft type
Origin: 67L Mesquite
United States
Destination: L77 Chiriaco Summit
United States
More flights between these airports :: More routes between these airports
Route:
File this flight plan on PilotEdge
Remarks: ALPHABET CHALLENGE
Altitude:
(Current/Filed)
8,500ft
Speed:
(Current/Filed)
110kts
Departed: 13-Apr-20 09:25 AM
Arrived: 13-Apr-20 11:17 AM
Distance/Time
Traveled:
207nm/1:52
Distance/Time
To Go:
Arrived

Flight Plot

Page will automatically refresh every two minutes.


Map Options




Map Legend


Flown Route
Filed Route
Departure Airport
Arrival Airport
Navaid (VOR, NDB)
Fix

Horizontal Profiles

Position Reports

Time Latitude Longitude Heading Altitude Ground
Speed
13-Apr-20 09:13 36.833515 -114.057590 111 1979ft 0kts
13-Apr-20 09:14 36.833515 -114.057590 111 1979ft 0kts
13-Apr-20 09:15 36.833515 -114.057590 111 1979ft 0kts
13-Apr-20 09:16 36.833515 -114.057590 111 1979ft 0kts
13-Apr-20 09:17 36.833515 -114.057590 111 1979ft 0kts
13-Apr-20 09:18 36.833515 -114.057590 111 1979ft 0kts
13-Apr-20 09:19 36.833515 -114.057590 111 1979ft 0kts
13-Apr-20 09:20 36.832935 -114.057781 204 1979ft 15kts
13-Apr-20 09:21 36.834634 -114.055808 28 1979ft 20kts
13-Apr-20 09:22 36.839448 -114.052368 77 1979ft 0kts
13-Apr-20 09:23 36.839448 -114.052368 77 1979ft 0kts
13-Apr-20 09:24 36.836199 -114.053758 210 1979ft 68kts
13-Apr-20 09:25 36.817052 -114.065649 201 2689ft 80kts
13-Apr-20 09:26 36.799284 -114.078759 205 3323ft 82kts
13-Apr-20 09:27 36.779450 -114.089650 181 3935ft 84kts
13-Apr-20 09:28 36.758632 -114.100402 214 4544ft 83kts
13-Apr-20 09:29 36.738010 -114.115227 207 5101ft 86kts
13-Apr-20 09:30 36.715868 -114.127670 200 5637ft 88kts
13-Apr-20 09:31 36.693621 -114.140179 200 6161ft 87kts
13-Apr-20 09:32 36.671782 -114.153274 203 6653ft 88kts
13-Apr-20 09:33 36.649774 -114.166005 208 7205ft 78kts
13-Apr-20 09:34 36.628363 -114.177772 215 7581ft 85kts
13-Apr-20 09:35 36.606571 -114.190725 206 7974ft 88kts
13-Apr-20 09:36 36.583370 -114.202278 205 8346ft 91kts
13-Apr-20 09:37 36.557160 -114.210697 199 8525ft 111kts
13-Apr-20 09:38 36.526129 -114.225581 207 8522ft 127kts
13-Apr-20 09:39 36.493050 -114.243378 207 8515ft 126kts
13-Apr-20 09:40 36.461176 -114.260579 207 8515ft 124kts
13-Apr-20 09:41 36.429440 -114.277682 207 8515ft 124kts
13-Apr-20 09:42 36.397547 -114.294950 208 8515ft 124kts
13-Apr-20 09:43 36.366297 -114.313455 209 8516ft 124kts
13-Apr-20 09:44 36.334905 -114.331264 208 8516ft 124kts
13-Apr-20 09:45 36.303250 -114.348491 207 8516ft 124kts
13-Apr-20 09:46 36.271549 -114.365555 207 8516ft 124kts
13-Apr-20 09:47 36.238424 -114.377632 195 8517ft 125kts
13-Apr-20 09:48 36.204090 -114.386220 195 8517ft 125kts
13-Apr-20 09:49 36.169912 -114.394765 195 8517ft 125kts
13-Apr-20 09:50 36.135546 -114.403351 195 8517ft 125kts
13-Apr-20 09:51 36.101123 -114.411960 195 8517ft 127kts
13-Apr-20 09:52 36.066494 -114.420635 195 8517ft 127kts
13-Apr-20 09:53 36.031875 -114.429304 195 8517ft 127kts
13-Apr-20 09:54 35.997269 -114.437868 195 8517ft 127kts
13-Apr-20 09:55 35.962619 -114.447016 199 8517ft 126kts
13-Apr-20 09:56 35.929733 -114.461807 206 8517ft 125kts
13-Apr-20 09:57 35.897923 -114.478943 208 8516ft 125kts
13-Apr-20 09:58 35.866075 -114.496739 208 8515ft 125kts
13-Apr-20 09:59 35.834488 -114.514534 209 8515ft 125kts
13-Apr-20 10:00 35.802902 -114.532352 209 8515ft 125kts
13-Apr-20 10:01 35.771273 -114.550178 209 8515ft 125kts
13-Apr-20 10:03 35.738770 -114.562980 169 8517ft 128kts
13-Apr-20 10:04 35.705900 -114.572864 213 8513ft 125kts
13-Apr-20 10:05 35.676807 -114.598070 222 8526ft 130kts
13-Apr-20 10:06 35.648482 -114.626454 224 8519ft 131kts
13-Apr-20 10:07 35.620830 -114.654903 224 8512ft 130kts
13-Apr-20 10:08 35.593223 -114.683435 225 8506ft 129kts
13-Apr-20 10:09 35.565792 -114.711804 226 8500ft 128kts
13-Apr-20 10:10 35.538664 -114.739842 226 8496ft 127kts
13-Apr-20 10:11 35.511727 -114.767660 226 8496ft 126kts
13-Apr-20 10:12 35.484772 -114.795471 226 8498ft 127kts
13-Apr-20 10:13 35.457651 -114.823423 226 8499ft 127kts
13-Apr-20 10:14 35.430493 -114.851377 226 8498ft 127kts
13-Apr-20 10:15 35.403442 -114.879217 226 8496ft 127kts
13-Apr-20 10:16 35.376388 -114.907021 226 8493ft 126kts
13-Apr-20 10:17 35.349574 -114.934555 226 8490ft 125kts
13-Apr-20 10:18 35.322865 -114.961959 226 8490ft 125kts
13-Apr-20 10:19 35.296140 -114.989358 226 8493ft 125kts
13-Apr-20 10:20 35.269382 -115.016765 226 8494ft 125kts
13-Apr-20 10:20 35.247074 -115.039597 226 8494ft 125kts
13-Apr-20 10:21 35.220216 -115.067059 227 8493ft 125kts
13-Apr-20 10:22 35.193373 -115.094481 227 8490ft 125kts
13-Apr-20 10:24 35.162128 -115.126372 227 8490ft 125kts
13-Apr-20 10:25 35.135276 -115.153757 226 8490ft 126kts
13-Apr-20 10:25 35.111885 -115.175494 215 8490ft 129kts
13-Apr-20 10:26 35.078667 -115.193074 204 8490ft 131kts
13-Apr-20 10:28 35.037971 -115.209383 201 8490ft 132kts
13-Apr-20 10:28 35.008934 -115.220282 201 8490ft 131kts
13-Apr-20 10:29 34.974289 -115.233128 201 8490ft 129kts
13-Apr-20 10:30 34.940282 -115.245697 201 8490ft 127kts
13-Apr-20 10:31 34.906664 -115.258113 201 8490ft 125kts
13-Apr-20 10:32 34.873931 -115.270163 201 8488ft 123kts
13-Apr-20 10:33 34.841068 -115.282262 201 8488ft 123kts
13-Apr-20 10:34 34.808238 -115.294344 201 8488ft 123kts
13-Apr-20 10:35 34.775439 -115.306388 201 8488ft 123kts
13-Apr-20 10:36 34.748637 -115.316228 201 8488ft 123kts
13-Apr-20 10:37 34.748637 -115.316228 201 8488ft 123kts
13-Apr-20 10:38 34.716520 -115.329826 210 8488ft 121kts
13-Apr-20 10:39 34.686166 -115.347756 210 8499ft 121kts
13-Apr-20 10:40 34.655815 -115.365377 210 8514ft 120kts
13-Apr-20 10:41 34.625291 -115.382734 210 8481ft 124kts
13-Apr-20 10:42 34.595386 -115.401510 215 8463ft 118kts
13-Apr-20 10:43 34.566675 -115.420769 215 8485ft 117kts
13-Apr-20 10:44 34.552205 -115.430275 215 8495ft 116kts
13-Apr-20 10:45 34.535930 -115.440863 215 8500ft 116kts
13-Apr-20 10:46 34.507325 -115.459403 215 8501ft 116kts
13-Apr-20 10:47 34.478664 -115.477996 215 8501ft 116kts
13-Apr-20 10:48 34.450053 -115.496551 215 8501ft 116kts
13-Apr-20 10:49 34.419724 -115.511468 210 8500ft 118kts
13-Apr-20 10:50 34.388522 -115.524963 203 8501ft 120kts
13-Apr-20 10:51 34.356082 -115.534957 201 8501ft 120kts
13-Apr-20 10:52 34.323339 -115.544000 200 8501ft 121kts
13-Apr-20 10:53 34.290478 -115.552810 200 8501ft 121kts
13-Apr-20 10:54 34.257679 -115.561533 200 8501ft 121kts
13-Apr-20 10:55 34.224188 -115.570464 199 8319ft 130kts
13-Apr-20 10:56 34.199119 -115.577126 199 7970ft 135kts
13-Apr-20 10:57 34.162255 -115.586867 199 7459ft 135kts
13-Apr-20 10:58 34.125059 -115.594539 194 6948ft 136kts
13-Apr-20 10:59 34.088229 -115.602666 199 6489ft 130kts
13-Apr-20 11:00 34.054836 -115.611406 200 6490ft 120kts
13-Apr-20 11:01 34.022238 -115.620011 199 6470ft 120kts
13-Apr-20 11:02 33.989567 -115.628621 198 6450ft 120kts
13-Apr-20 11:03 33.957014 -115.637190 198 6429ft 119kts
13-Apr-20 11:04 33.924295 -115.645796 197 6400ft 121kts
13-Apr-20 11:05 33.891888 -115.654314 197 6395ft 120kts
13-Apr-20 11:06 33.859039 -115.662934 197 6395ft 120kts
13-Apr-20 11:07 33.826250 -115.671538 197 6395ft 120kts
13-Apr-20 11:08 33.794964 -115.677676 182 6185ft 98kts
13-Apr-20 11:09 33.769732 -115.677830 190 5692ft 87kts
13-Apr-20 11:10 33.744755 -115.675565 170 5437ft 89kts
13-Apr-20 11:11 33.718253 -115.670440 174 4934ft 108kts
13-Apr-20 11:12 33.688922 -115.664806 158 4264ft 107kts
13-Apr-20 11:13 33.694470 -115.665175 220 3398ft 105kts
13-Apr-20 11:14 33.670772 -115.669322 260 2818ft 63kts
13-Apr-20 11:15 33.667624 -115.690920 266 1996ft 64kts
13-Apr-20 11:16 33.665235 -115.707851 260 1694ft 32kts
13-Apr-20 11:17 33.663358 -115.719152 255 1694ft 15kts
13-Apr-20 11:18 33.661723 -115.719017 88 1694ft 3kts
13-Apr-20 11:19 33.661821 -115.718652 339 1694ft 0kts
13-Apr-20 11:20 33.661821 -115.718652 339 1694ft 0kts
13-Apr-20 11:21 33.661821 -115.718652 339 1694ft 0kts
13-Apr-20 11:22 33.661821 -115.718652 339 1694ft 0kts
13-Apr-20 11:23 33.661821 -115.718652 339 1694ft 0kts

Navigation Log

Ident Type
Flight plan parsing failed, navigation log unavailable